sensor_id;sensor_type;location;lat;lon;timestamp;temperature;humidity
58309;DHT22;44117;57.142;24.826;2022-08-25T00:01:37;20.80;99.90
58309;DHT22;44117;57.142;24.826;2022-08-25T00:04:07;20.70;99.90
58309;DHT22;44117;57.142;24.826;2022-08-25T00:06:40;20.70;99.90
58309;DHT22;44117;57.142;24.826;2022-08-25T00:09:09;20.60;99.90
58309;DHT22;44117;57.142;24.826;2022-08-25T00:11:38;20.60;99.90
58309;DHT22;44117;57.142;24.826;2022-08-25T00:14:11;20.60;99.90
58309;DHT22;44117;57.142;24.826;2022-08-25T00:16:39;20.50;99.90
58309;DHT22;44117;57.142;24.826;2022-08-25T00:19:12;20.50;99.90
58309;DHT22;44117;57.142;24.826;2022-08-25T00:21:41;20.50;99.90
58309;DHT22;44117;57.142;24.826;2022-08-25T00:24:10;20.40;99.90
58309;DHT22;44117;57.142;24.826;2022-08-25T00:26:43;20.40;99.90
58309;DHT22;44117;57.142;24.826;2022-08-25T00:29:11;20.40;99.90
58309;DHT22;44117;57.142;24.826;2022-08-25T00:31:40;20.40;99.90
58309;DHT22;44117;57.142;24.826;2022-08-25T00:34:14;20.40;99.90
58309;DHT22;44117;57.142;24.826;2022-08-25T00:36:43;20.30;99.90
58309;DHT22;44117;57.142;24.826;2022-08-25T00:39:11;20.30;99.90
58309;DHT22;44117;57.142;24.826;2022-08-25T00:41:40;20.30;99.90
58309;DHT22;44117;57.142;24.826;2022-08-25T00:44:11;20.30;99.90
58309;DHT22;44117;57.142;24.826;2022-08-25T00:46:47;20.20;99.90
58309;DHT22;44117;57.142;24.826;2022-08-25T00:49:20;20.10;99.90
58309;DHT22;44117;57.142;24.826;2022-08-25T00:52:05;20.10;99.90
58309;DHT22;44117;57.142;24.826;2022-08-25T00:54:38;20.10;99.90
58309;DHT22;44117;57.142;24.826;2022-08-25T00:57:07;20.00;99.90
58309;DHT22;44117;57.142;24.826;2022-08-25T00:59:35;19.90;99.90
58309;DHT22;44117;57.142;24.826;2022-08-25T01:02:05;19.90;99.90
58309;DHT22;44117;57.142;24.826;2022-08-25T01:04:40;19.90;99.90
58309;DHT22;44117;57.142;24.826;2022-08-25T01:07:17;19.80;99.90
58309;DHT22;44117;57.142;24.826;2022-08-25T01:09:47;19.80;99.90
58309;DHT22;44117;57.142;24.826;2022-08-25T01:12:15;19.70;99.90
58309;DHT22;44117;57.142;24.826;2022-08-25T01:14:44;19.70;99.90
58309;DHT22;44117;57.142;24.826;2022-08-25T01:17:13;19.70;99.90
58309;DHT22;44117;57.142;24.826;2022-08-25T01:19:40;19.70;99.90
58309;DHT22;44117;57.142;24.826;2022-08-25T01:22:09;19.70;99.90
58309;DHT22;44117;57.142;24.826;2022-08-25T01:25:01;19.60;99.90
58309;DHT22;44117;57.142;24.826;2022-08-25T01:27:30;19.60;99.90
58309;DHT22;44117;57.142;24.826;2022-08-25T01:29:57;19.60;99.90
58309;DHT22;44117;57.142;24.826;2022-08-25T01:32:25;19.50;99.90
58309;DHT22;44117;57.142;24.826;2022-08-25T01:34:52;19.50;99.90
58309;DHT22;44117;57.142;24.826;2022-08-25T01:37:19;19.50;99.90
58309;DHT22;44117;57.142;24.826;2022-08-25T01:39:47;19.50;99.90
58309;DHT22;44117;57.142;24.826;2022-08-25T01:42:36;19.50;99.90
58309;DHT22;44117;57.142;24.826;2022-08-25T01:45:05;19.40;99.90
58309;DHT22;44117;57.142;24.826;2022-08-25T01:47:32;19.40;99.90
58309;DHT22;44117;57.142;24.826;2022-08-25T01:50:00;19.50;99.90
58309;DHT22;44117;57.142;24.826;2022-08-25T01:55:23;19.50;99.90
58309;DHT22;44117;57.142;24.826;2022-08-25T01:57:51;19.50;99.90
58309;DHT22;44117;57.142;24.826;2022-08-25T02:00:19;19.50;99.90
58309;DHT22;44117;57.142;24.826;2022-08-25T02:02:47;19.40;99.90
58309;DHT22;44117;57.142;24.826;2022-08-25T02:05:21;19.50;99.90
58309;DHT22;44117;57.142;24.826;2022-08-25T02:07:49;19.40;99.90
58309;DHT22;44117;57.142;24.826;2022-08-25T02:10:17;19.40;99.90
58309;DHT22;44117;57.142;24.826;2022-08-25T02:12:44;19.40;99.90
58309;DHT22;44117;57.142;24.826;2022-08-25T02:15:12;19.40;99.90
58309;DHT22;44117;57.142;24.826;2022-08-25T02:17:40;19.50;99.90
58309;DHT22;44117;57.142;24.826;2022-08-25T02:20:07;19.40;99.90
58309;DHT22;44117;57.142;24.826;2022-08-25T02:22:35;19.50;99.90
58309;DHT22;44117;57.142;24.826;2022-08-25T02:25:04;19.50;99.90
58309;DHT22;44117;57.142;24.826;2022-08-25T02:27:32;19.50;99.90
58309;DHT22;44117;57.142;24.826;2022-08-25T02:30:00;19.50;99.90
58309;DHT22;44117;57.142;24.826;2022-08-25T02:32:27;19.50;99.90
58309;DHT22;44117;57.142;24.826;2022-08-25T02:34:55;19.50;99.90
58309;DHT22;44117;57.142;24.826;2022-08-25T02:37:22;19.50;99.90
58309;DHT22;44117;57.142;24.826;2022-08-25T02:39:50;19.50;99.90
58309;DHT22;44117;57.142;24.826;2022-08-25T02:42:17;19.50;99.90
58309;DHT22;44117;57.142;24.826;2022-08-25T02:44:45;19.50;99.90
58309;DHT22;44117;57.142;24.826;2022-08-25T02:47:12;19.50;99.90
58309;DHT22;44117;57.142;24.826;2022-08-25T02:49:40;19.50;99.90
58309;DHT22;44117;57.142;24.826;2022-08-25T02:52:08;19.40;99.90
58309;DHT22;44117;57.142;24.826;2022-08-25T02:54:35;19.40;99.90
58309;DHT22;44117;57.142;24.826;2022-08-25T02:57:03;19.30;99.90
58309;DHT22;44117;57.142;24.826;2022-08-25T02:59:30;19.30;99.90
58309;DHT22;44117;57.142;24.826;2022-08-25T03:01:58;19.30;99.90
58309;DHT22;44117;57.142;24.826;2022-08-25T03:04:25;19.30;99.90
58309;DHT22;44117;57.142;24.826;2022-08-25T03:06:53;19.30;99.90
58309;DHT22;44117;57.142;24.826;2022-08-25T03:09:20;19.20;99.90
58309;DHT22;44117;57.142;24.826;2022-08-25T03:11:49;19.20;99.90
58309;DHT22;44117;57.142;24.826;2022-08-25T03:14:16;19.20;99.90
58309;DHT22;44117;57.142;24.826;2022-08-25T03:16:44;19.20;99.90
58309;DHT22;44117;57.142;24.826;2022-08-25T03:19:12;19.10;99.90
58309;DHT22;44117;57.142;24.826;2022-08-25T03:21:39;19.20;99.90
58309;DHT22;44117;57.142;24.826;2022-08-25T03:24:07;19.10;99.90
58309;DHT22;44117;57.142;24.826;2022-08-25T03:26:35;19.20;99.90
58309;DHT22;44117;57.142;24.826;2022-08-25T03:29:26;19.20;99.90
58309;DHT22;44117;57.142;24.826;2022-08-25T03:31:55;19.10;99.90
58309;DHT22;44117;57.142;24.826;2022-08-25T03:34:26;19.10;99.90
58309;DHT22;44117;57.142;24.826;2022-08-25T03:36:57;19.20;99.90
58309;DHT22;44117;57.142;24.826;2022-08-25T03:39:25;19.20;99.90
58309;DHT22;44117;57.142;24.826;2022-08-25T03:41:53;19.20;99.90
58309;DHT22;44117;57.142;24.826;2022-08-25T03:44:21;19.20;99.90
58309;DHT22;44117;57.142;24.826;2022-08-25T03:46:50;19.30;99.90
58309;DHT22;44117;57.142;24.826;2022-08-25T03:49:21;19.30;99.90
58309;DHT22;44117;57.142;24.826;2022-08-25T03:51:51;19.30;99.90
58309;DHT22;44117;57.142;24.826;2022-08-25T03:54:22;19.30;99.90
58309;DHT22;44117;57.142;24.826;2022-08-25T03:56:50;19.40;99.90
58309;DHT22;44117;57.142;24.826;2022-08-25T03:59:17;19.40;99.90
58309;DHT22;44117;57.142;24.826;2022-08-25T04:01:46;19.40;99.90
58309;DHT22;44117;57.142;24.826;2022-08-25T04:04:20;19.50;99.90
58309;DHT22;44117;57.142;24.826;2022-08-25T04:06:48;19.50;99.90
58309;DHT22;44117;57.142;24.826;2022-08-25T04:09:15;19.50;99.90
58309;DHT22;44117;57.142;24.826;2022-08-25T04:11:43;19.50;99.90
58309;DHT22;44117;57.142;24.826;2022-08-25T04:14:10;19.60;99.90
58309;DHT22;44117;57.142;24.826;2022-08-25T04:16:43;19.60;99.90
58309;DHT22;44117;57.142;24.826;2022-08-25T04:19:11;19.60;99.90
58309;DHT22;44117;57.142;24.826;2022-08-25T04:21:39;19.60;99.90
58309;DHT22;44117;57.142;24.826;2022-08-25T04:24:08;19.60;99.90
58309;DHT22;44117;57.142;24.826;2022-08-25T04:26:39;19.70;99.90
58309;DHT22;44117;57.142;24.826;2022-08-25T04:29:10;19.70;99.90
58309;DHT22;44117;57.142;24.826;2022-08-25T04:31:39;19.70;99.90
58309;DHT22;44117;57.142;24.826;2022-08-25T04:34:07;19.70;99.90
58309;DHT22;44117;57.142;24.826;2022-08-25T04:36:54;19.80;99.90
58309;DHT22;44117;57.142;24.826;2022-08-25T04:39:22;19.80;99.90
58309;DHT22;44117;57.142;24.826;2022-08-25T04:41:50;19.80;99.90
58309;DHT22;44117;57.142;24.826;2022-08-25T04:44:17;19.80;99.90
58309;DHT22;44117;57.142;24.826;2022-08-25T04:46:44;19.90;99.90
58309;DHT22;44117;57.142;24.826;2022-08-25T04:49:12;20.00;99.90
58309;DHT22;44117;57.142;24.826;2022-08-25T04:51:40;20.00;99.90
58309;DHT22;44117;57.142;24.826;2022-08-25T04:54:10;20.10;99.90
58309;DHT22;44117;57.142;24.826;2022-08-25T04:56:40;20.10;99.90
58309;DHT22;44117;57.142;24.826;2022-08-25T04:59:10;20.10;99.90
58309;DHT22;44117;57.142;24.826;2022-08-25T05:01:38;20.20;99.90
58309;DHT22;44117;57.142;24.826;2022-08-25T05:04:08;20.20;99.90
58309;DHT22;44117;57.142;24.826;2022-08-25T05:06:54;20.10;99.90
58309;DHT22;44117;57.142;24.826;2022-08-25T05:09:22;20.10;99.90
58309;DHT22;44117;57.142;24.826;2022-08-25T05:11:51;20.10;99.90
58309;DHT22;44117;57.142;24.826;2022-08-25T05:14:20;20.10;99.90
58309;DHT22;44117;57.142;24.826;2022-08-25T05:16:53;20.10;99.90
58309;DHT22;44117;57.142;24.826;2022-08-25T05:19:21;20.20;99.90
58309;DHT22;44117;57.142;24.826;2022-08-25T05:21:51;20.30;99.90
58309;DHT22;44117;57.142;24.826;2022-08-25T05:24:19;20.40;99.90
58309;DHT22;44117;57.142;24.826;2022-08-25T05:26:46;20.40;99.90
58309;DHT22;44117;57.142;24.826;2022-08-25T05:29:13;20.40;99.90
58309;DHT22;44117;57.142;24.826;2022-08-25T05:31:41;20.50;99.90
58309;DHT22;44117;57.142;24.826;2022-08-25T05:34:16;20.50;99.90
58309;DHT22;44117;57.142;24.826;2022-08-25T05:36:45;20.50;99.90
58309;DHT22;44117;57.142;24.826;2022-08-25T05:39:12;20.50;99.90
58309;DHT22;44117;57.142;24.826;2022-08-25T05:41:40;20.50;99.90
58309;DHT22;44117;57.142;24.826;2022-08-25T05:44:07;20.50;99.90
58309;DHT22;44117;57.142;24.826;2022-08-25T05:46:35;20.50;99.90
58309;DHT22;44117;57.142;24.826;2022-08-25T05:49:03;20.40;99.90
58309;DHT22;44117;57.142;24.826;2022-08-25T05:51:30;20.30;99.90
58309;DHT22;44117;57.142;24.826;2022-08-25T05:53:58;20.30;99.90
58309;DHT22;44117;57.142;24.826;2022-08-25T05:56:25;20.30;99.90
58309;DHT22;44117;57.142;24.826;2022-08-25T05:58:53;20.20;99.90
58309;DHT22;44117;57.142;24.826;2022-08-25T06:01:26;20.20;99.90
58309;DHT22;44117;57.142;24.826;2022-08-25T06:04:15;20.20;99.90
58309;DHT22;44117;57.142;24.826;2022-08-25T06:06:44;20.20;99.90
58309;DHT22;44117;57.142;24.826;2022-08-25T06:09:11;20.20;99.90
58309;DHT22;44117;57.142;24.826;2022-08-25T06:11:39;20.30;99.90
58309;DHT22;44117;57.142;24.826;2022-08-25T06:14:08;20.30;99.90
58309;DHT22;44117;57.142;24.826;2022-08-25T06:16:36;20.40;99.90
58309;DHT22;44117;57.142;24.826;2022-08-25T06:19:06;20.50;99.90
58309;DHT22;44117;57.142;24.826;2022-08-25T06:21:34;20.50;99.90
58309;DHT22;44117;57.142;24.826;2022-08-25T06:24:01;20.50;99.90
58309;DHT22;44117;57.142;24.826;2022-08-25T06:26:29;20.50;99.90
58309;DHT22;44117;57.142;24.826;2022-08-25T06:28:57;20.60;99.90
58309;DHT22;44117;57.142;24.826;2022-08-25T06:31:24;20.70;99.90
58309;DHT22;44117;57.142;24.826;2022-08-25T06:33:52;20.70;99.90
58309;DHT22;44117;57.142;24.826;2022-08-25T06:36:19;20.70;99.90
58309;DHT22;44117;57.142;24.826;2022-08-25T06:38:47;20.80;99.90
58309;DHT22;44117;57.142;24.826;2022-08-25T06:41:15;20.80;99.90
58309;DHT22;44117;57.142;24.826;2022-08-25T06:43:42;20.70;99.90
58309;DHT22;44117;57.142;24.826;2022-08-25T06:46:22;20.70;99.90
58309;DHT22;44117;57.142;24.826;2022-08-25T06:49:03;20.90;99.90
58309;DHT22;44117;57.142;24.826;2022-08-25T06:51:31;20.90;99.90
58309;DHT22;44117;57.142;24.826;2022-08-25T06:54:03;21.00;99.90
58309;DHT22;44117;57.142;24.826;2022-08-25T06:56:31;21.20;99.90
58309;DHT22;44117;57.142;24.826;2022-08-25T06:59:02;21.30;99.90
58309;DHT22;44117;57.142;24.826;2022-08-25T07:01:30;21.50;99.90
58309;DHT22;44117;57.142;24.826;2022-08-25T07:04:00;21.80;99.90
58309;DHT22;44117;57.142;24.826;2022-08-25T07:06:31;22.10;99.90
58309;DHT22;44117;57.142;24.826;2022-08-25T07:08:58;22.40;99.90
58309;DHT22;44117;57.142;24.826;2022-08-25T07:11:26;22.50;99.90
58309;DHT22;44117;57.142;24.826;2022-08-25T07:13:54;22.60;99.90
58309;DHT22;44117;57.142;24.826;2022-08-25T07:16:21;22.60;99.90
58309;DHT22;44117;57.142;24.826;2022-08-25T07:18:56;22.60;99.90
58309;DHT22;44117;57.142;24.826;2022-08-25T07:21:29;22.50;99.90
58309;DHT22;44117;57.142;24.826;2022-08-25T07:24:08;22.50;99.90
58309;DHT22;44117;57.142;24.826;2022-08-25T07:26:44;22.80;99.90
58309;DHT22;44117;57.142;24.826;2022-08-25T07:29:22;22.80;99.90
58309;DHT22;44117;57.142;24.826;2022-08-25T07:32:00;22.80;99.90
58309;DHT22;44117;57.142;24.826;2022-08-25T07:34:28;22.70;99.90
58309;DHT22;44117;57.142;24.826;2022-08-25T07:37:20;22.40;99.90
58309;DHT22;44117;57.142;24.826;2022-08-25T07:40:12;22.50;99.90
58309;DHT22;44117;57.142;24.826;2022-08-25T07:42:41;22.50;99.90
58309;DHT22;44117;57.142;24.826;2022-08-25T07:45:10;22.50;99.90
58309;DHT22;44117;57.142;24.826;2022-08-25T07:47:38;22.50;99.90
58309;DHT22;44117;57.142;24.826;2022-08-25T07:50:07;22.40;99.90
58309;DHT22;44117;57.142;24.826;2022-08-25T07:52:35;22.70;99.90
58309;DHT22;44117;57.142;24.826;2022-08-25T07:55:05;22.90;99.90
58309;DHT22;44117;57.142;24.826;2022-08-25T07:57:39;23.10;99.90
58309;DHT22;44117;57.142;24.826;2022-08-25T08:00:08;23.00;99.90
58309;DHT22;44117;57.142;24.826;2022-08-25T08:02:37;23.00;99.90
58309;DHT22;44117;57.142;24.826;2022-08-25T08:05:06;23.20;99.90
58309;DHT22;44117;57.142;24.826;2022-08-25T08:07:35;23.30;99.90
58309;DHT22;44117;57.142;24.826;2022-08-25T08:10:12;23.40;99.90
58309;DHT22;44117;57.142;24.826;2022-08-25T08:13:00;23.40;99.90
58309;DHT22;44117;57.142;24.826;2022-08-25T08:15:28;23.70;99.90
58309;DHT22;44117;57.142;24.826;2022-08-25T08:17:57;23.90;99.90
58309;DHT22;44117;57.142;24.826;2022-08-25T08:20:25;23.90;99.90
58309;DHT22;44117;57.142;24.826;2022-08-25T08:22:53;24.00;99.90
58309;DHT22;44117;57.142;24.826;2022-08-25T08:25:21;24.00;99.90
58309;DHT22;44117;57.142;24.826;2022-08-25T08:27:53;23.90;99.90
58309;DHT22;44117;57.142;24.826;2022-08-25T08:30:22;23.70;99.90
58309;DHT22;44117;57.142;24.826;2022-08-25T08:32:53;23.80;99.90
58309;DHT22;44117;57.142;24.826;2022-08-25T08:35:41;23.60;99.90
58309;DHT22;44117;57.142;24.826;2022-08-25T08:38:09;23.80;99.90
58309;DHT22;44117;57.142;24.826;2022-08-25T08:40:59;23.90;99.90
58309;DHT22;44117;57.142;24.826;2022-08-25T08:53:15;24.70;99.90
58309;DHT22;44117;57.142;24.826;2022-08-25T08:55:50;24.90;99.90
58309;DHT22;44117;57.142;24.826;2022-08-25T08:58:37;25.00;99.90
58309;DHT22;44117;57.142;24.826;2022-08-25T09:01:09;25.00;99.20
58309;DHT22;44117;57.142;24.826;2022-08-25T09:04:04;25.10;98.90
58309;DHT22;44117;57.142;24.826;2022-08-25T09:06:42;25.30;98.70
58309;DHT22;44117;57.142;24.826;2022-08-25T09:09:29;25.50;99.80
58309;DHT22;44117;57.142;24.826;2022-08-25T09:12:16;25.80;98.00
58309;DHT22;44117;57.142;24.826;2022-08-25T09:14:56;25.50;98.80
58309;DHT22;44117;57.142;24.826;2022-08-25T09:17:44;25.50;98.10
58309;DHT22;44117;57.142;24.826;2022-08-25T09:26:55;24.40;99.50
58309;DHT22;44117;57.142;24.826;2022-08-25T09:29:35;24.50;99.50
58309;DHT22;44117;57.142;24.826;2022-08-25T09:32:07;24.70;99.90
58309;DHT22;44117;57.142;24.826;2022-08-25T09:34:36;24.90;99.90
58309;DHT22;44117;57.142;24.826;2022-08-25T09:37:04;25.00;99.50
58309;DHT22;44117;57.142;24.826;2022-08-25T09:39:33;24.80;99.90
58309;DHT22;44117;57.142;24.826;2022-08-25T09:42:02;24.70;99.20
58309;DHT22;44117;57.142;24.826;2022-08-25T09:44:39;24.90;99.80
58309;DHT22;44117;57.142;24.826;2022-08-25T09:47:25;25.30;99.30
58309;DHT22;44117;57.142;24.826;2022-08-25T09:50:00;25.60;99.10
58309;DHT22;44117;57.142;24.826;2022-08-25T09:52:37;25.80;98.00
58309;DHT22;44117;57.142;24.826;2022-08-25T10:00:29;26.30;97.90
58309;DHT22;44117;57.142;24.826;2022-08-25T10:03:17;26.60;97.80
58309;DHT22;44117;57.142;24.826;2022-08-25T10:06:06;27.10;97.20
58309;DHT22;44117;57.142;24.826;2022-08-25T10:08:52;27.60;95.90
58309;DHT22;44117;57.142;24.826;2022-08-25T10:11:40;28.20;94.80
58309;DHT22;44117;57.142;24.826;2022-08-25T10:14:31;28.30;94.00
58309;DHT22;44117;57.142;24.826;2022-08-25T10:17:27;28.70;94.10
58309;DHT22;44117;57.142;24.826;2022-08-25T10:20:12;29.10;93.30
58309;DHT22;44117;57.142;24.826;2022-08-25T10:22:42;29.50;91.40
58309;DHT22;44117;57.142;24.826;2022-08-25T10:25:27;28.40;93.00
58309;DHT22;44117;57.142;24.826;2022-08-25T10:33:27;28.50;93.30
58309;DHT22;44117;57.142;24.826;2022-08-25T10:36:19;28.60;93.50
58309;DHT22;44117;57.142;24.826;2022-08-25T10:38:53;28.90;93.10
58309;DHT22;44117;57.142;24.826;2022-08-25T10:49:40;30.10;90.90
58309;DHT22;44117;57.142;24.826;2022-08-25T10:55:24;29.40;90.90
58309;DHT22;44117;57.142;24.826;2022-08-25T10:57:59;29.00;90.90
58309;DHT22;44117;57.142;24.826;2022-08-25T11:00:37;29.20;91.80
58309;DHT22;44117;57.142;24.826;2022-08-25T11:03:31;29.50;90.90
58309;DHT22;44117;57.142;24.826;2022-08-25T11:06:12;30.20;91.00
58309;DHT22;44117;57.142;24.826;2022-08-25T11:08:45;30.40;90.80
58309;DHT22;44117;57.142;24.826;2022-08-25T11:14:10;31.70;87.60
58309;DHT22;44117;57.142;24.826;2022-08-25T11:16:41;31.60;87.70
58309;DHT22;44117;57.142;24.826;2022-08-25T11:22:00;32.10;85.00
58309;DHT22;44117;57.142;24.826;2022-08-25T11:27:04;32.90;83.00
58309;DHT22;44117;57.142;24.826;2022-08-25T11:29:34;32.90;84.10
58309;DHT22;44117;57.142;24.826;2022-08-25T11:32:05;33.20;82.00
58309;DHT22;44117;57.142;24.826;2022-08-25T11:34:35;33.90;80.90
58309;DHT22;44117;57.142;24.826;2022-08-25T11:37:25;34.20;80.20
58309;DHT22;44117;57.142;24.826;2022-08-25T11:42:49;34.30;76.70
58309;DHT22;44117;57.142;24.826;2022-08-25T11:51:05;30.70;84.10
58309;DHT22;44117;57.142;24.826;2022-08-25T11:53:36;29.60;86.50
58309;DHT22;44117;57.142;24.826;2022-08-25T11:56:48;29.10;87.70
58309;DHT22;44117;57.142;24.826;2022-08-25T11:59:07;28.60;89.80
58309;DHT22;44117;57.142;24.826;2022-08-25T12:15:33;29.00;91.30
58309;DHT22;44117;57.142;24.826;2022-08-25T12:18:08;29.70;90.90
58309;DHT22;44117;57.142;24.826;2022-08-25T12:23:41;32.00;87.40
58309;DHT22;44117;57.142;24.826;2022-08-25T12:31:51;34.60;78.50
58309;DHT22;44117;57.142;24.826;2022-08-25T12:37:22;35.90;75.30
58309;DHT22;44117;57.142;24.826;2022-08-25T12:42:36;35.30;73.40
58309;DHT22;44117;57.142;24.826;2022-08-25T12:47:49;35.50;73.30
58309;DHT22;44117;57.142;24.826;2022-08-25T12:50:43;36.20;72.90
58309;DHT22;44117;57.142;24.826;2022-08-25T12:53:27;36.40;72.10
58309;DHT22;44117;57.142;24.826;2022-08-25T12:56:04;36.40;70.40
58309;DHT22;44117;57.142;24.826;2022-08-25T12:59:06;36.00;72.10
58309;DHT22;44117;57.142;24.826;2022-08-25T13:01:45;36.00;70.20
58309;DHT22;44117;57.142;24.826;2022-08-25T13:10:15;33.90;75.00
58309;DHT22;44117;57.142;24.826;2022-08-25T13:15:38;35.40;72.40
58309;DHT22;44117;57.142;24.826;2022-08-25T13:20:44;35.30;71.60
58309;DHT22;44117;57.142;24.826;2022-08-25T13:23:19;33.90;74.30
58309;DHT22;44117;57.142;24.826;2022-08-25T13:25:51;33.20;75.80
58309;DHT22;44117;57.142;24.826;2022-08-25T13:28:33;33.10;76.60
58309;DHT22;44117;57.142;24.826;2022-08-25T13:31:17;33.70;75.60
58309;DHT22;44117;57.142;24.826;2022-08-25T13:33:56;34.60;74.90
58309;DHT22;44117;57.142;24.826;2022-08-25T13:36:26;35.70;72.10
58309;DHT22;44117;57.142;24.826;2022-08-25T13:39:24;34.30;72.40
58309;DHT22;44117;57.142;24.826;2022-08-25T13:42:14;32.10;76.80
58309;DHT22;44117;57.142;24.826;2022-08-25T13:44:43;31.20;79.10
58309;DHT22;44117;57.142;24.826;2022-08-25T13:47:39;30.20;81.20
58309;DHT22;44117;57.142;24.826;2022-08-25T13:55:58;28.40;87.10
58309;DHT22;44117;57.142;24.826;2022-08-25T13:58:33;28.00;88.50
58309;DHT22;44117;57.142;24.826;2022-08-25T14:01:18;27.80;89.80
58309;DHT22;44117;57.142;24.826;2022-08-25T14:04:26;28.30;88.80
58309;DHT22;44117;57.142;24.826;2022-08-25T14:15:09;32.90;78.80
58309;DHT22;44117;57.142;24.826;2022-08-25T14:17:39;32.30;78.30
58309;DHT22;44117;57.142;24.826;2022-08-25T14:20:22;31.00;81.10
58309;DHT22;44117;57.142;24.826;2022-08-25T14:22:57;30.20;83.40
58309;DHT22;44117;57.142;24.826;2022-08-25T14:25:28;29.30;85.50
58309;DHT22;44117;57.142;24.826;2022-08-25T14:28:02;28.70;86.90
58309;DHT22;44117;57.142;24.826;2022-08-25T14:30:46;28.00;88.10
58309;DHT22;44117;57.142;24.826;2022-08-25T14:33:20;27.90;90.30
58309;DHT22;44117;57.142;24.826;2022-08-25T14:35:51;27.80;90.00
58309;DHT22;44117;57.142;24.826;2022-08-25T14:38:20;27.50;90.60
58309;DHT22;44117;57.142;24.826;2022-08-25T14:40:48;27.60;90.70
58309;DHT22;44117;57.142;24.826;2022-08-25T14:43:17;27.70;90.70
58309;DHT22;44117;57.142;24.826;2022-08-25T14:45:50;27.70;91.00
58309;DHT22;44117;57.142;24.826;2022-08-25T14:48:30;27.60;90.70
58309;DHT22;44117;57.142;24.826;2022-08-25T14:50:59;27.60;91.30
58309;DHT22;44117;57.142;24.826;2022-08-25T14:53:27;28.00;91.10
58309;DHT22;44117;57.142;24.826;2022-08-25T14:55:55;28.10;90.50
58309;DHT22;44117;57.142;24.826;2022-08-25T14:58:25;28.60;90.30
58309;DHT22;44117;57.142;24.826;2022-08-25T15:01:00;29.30;89.00
58309;DHT22;44117;57.142;24.826;2022-08-25T15:03:31;30.50;86.00
58309;DHT22;44117;57.142;24.826;2022-08-25T15:06:01;31.90;83.30
58309;DHT22;44117;57.142;24.826;2022-08-25T15:08:30;33.00;81.10
58309;DHT22;44117;57.142;24.826;2022-08-25T15:11:16;32.40;80.10
58309;DHT22;44117;57.142;24.826;2022-08-25T15:13:43;31.60;81.00
58309;DHT22;44117;57.142;24.826;2022-08-25T15:16:22;30.70;83.10
58309;DHT22;44117;57.142;24.826;2022-08-25T15:19:00;30.30;86.20
58309;DHT22;44117;57.142;24.826;2022-08-25T15:21:32;29.70;85.60
58309;DHT22;44117;57.142;24.826;2022-08-25T15:24:02;29.00;88.00
58309;DHT22;44117;57.142;24.826;2022-08-25T15:26:33;28.30;88.30
58309;DHT22;44117;57.142;24.826;2022-08-25T15:29:02;28.20;90.00
58309;DHT22;44117;57.142;24.826;2022-08-25T15:31:29;27.80;90.40
58309;DHT22;44117;57.142;24.826;2022-08-25T15:33:57;27.50;90.80
58309;DHT22;44117;57.142;24.826;2022-08-25T15:36:25;27.00;91.60
58309;DHT22;44117;57.142;24.826;2022-08-25T15:38:53;27.10;91.80
58309;DHT22;44117;57.142;24.826;2022-08-25T15:41:20;27.10;91.70
58309;DHT22;44117;57.142;24.826;2022-08-25T15:43:54;26.90;92.30
58309;DHT22;44117;57.142;24.826;2022-08-25T15:46:23;26.70;92.50
58309;DHT22;44117;57.142;24.826;2022-08-25T15:48:51;26.50;92.60
58309;DHT22;44117;57.142;24.826;2022-08-25T15:51:19;26.50;92.80
58309;DHT22;44117;57.142;24.826;2022-08-25T15:53:46;26.30;93.10
58309;DHT22;44117;57.142;24.826;2022-08-25T15:56:14;26.10;93.40
58309;DHT22;44117;57.142;24.826;2022-08-25T15:58:53;26.00;93.90
58309;DHT22;44117;57.142;24.826;2022-08-25T16:01:24;25.90;94.00
58309;DHT22;44117;57.142;24.826;2022-08-25T16:03:52;25.80;94.10
58309;DHT22;44117;57.142;24.826;2022-08-25T16:06:20;25.60;94.20
58309;DHT22;44117;57.142;24.826;2022-08-25T16:08:47;25.30;94.60
58309;DHT22;44117;57.142;24.826;2022-08-25T16:11:20;25.00;95.00
58309;DHT22;44117;57.142;24.826;2022-08-25T16:13:50;24.90;95.50
58309;DHT22;44117;57.142;24.826;2022-08-25T16:16:19;24.80;95.60
58309;DHT22;44117;57.142;24.826;2022-08-25T16:18:48;24.80;95.90
58309;DHT22;44117;57.142;24.826;2022-08-25T16:21:18;24.90;96.20
58309;DHT22;44117;57.142;24.826;2022-08-25T16:23:46;24.80;96.10
58309;DHT22;44117;57.142;24.826;2022-08-25T16:26:15;24.90;96.30
58309;DHT22;44117;57.142;24.826;2022-08-25T16:28:43;24.90;96.60
58309;DHT22;44117;57.142;24.826;2022-08-25T16:31:12;25.10;96.50
58309;DHT22;44117;57.142;24.826;2022-08-25T16:33:42;25.20;96.20
58309;DHT22;44117;57.142;24.826;2022-08-25T16:36:16;25.20;96.00
58309;DHT22;44117;57.142;24.826;2022-08-25T16:38:44;25.20;95.90
58309;DHT22;44117;57.142;24.826;2022-08-25T16:41:19;25.20;95.70
58309;DHT22;44117;57.142;24.826;2022-08-25T16:43:47;25.00;96.00
58309;DHT22;44117;57.142;24.826;2022-08-25T16:46:16;25.10;96.10
58309;DHT22;44117;57.142;24.826;2022-08-25T16:48:44;24.90;96.00
58309;DHT22;44117;57.142;24.826;2022-08-25T16:51:16;24.80;96.70
58309;DHT22;44117;57.142;24.826;2022-08-25T16:53:48;24.70;97.00
58309;DHT22;44117;57.142;24.826;2022-08-25T16:56:35;24.70;97.50
58309;DHT22;44117;57.142;24.826;2022-08-25T16:59:04;24.80;97.20
58309;DHT22;44117;57.142;24.826;2022-08-25T17:01:32;24.70;97.30
58309;DHT22;44117;57.142;24.826;2022-08-25T17:04:03;24.50;97.40
58309;DHT22;44117;57.142;24.826;2022-08-25T17:06:35;24.50;97.30
58309;DHT22;44117;57.142;24.826;2022-08-25T17:09:04;24.50;97.40
58309;DHT22;44117;57.142;24.826;2022-08-25T17:11:34;24.50;97.70
58309;DHT22;44117;57.142;24.826;2022-08-25T17:14:03;24.40;97.90
58309;DHT22;44117;57.142;24.826;2022-08-25T17:16:36;24.40;98.20
58309;DHT22;44117;57.142;24.826;2022-08-25T17:19:08;24.30;98.20
58309;DHT22;44117;57.142;24.826;2022-08-25T17:21:42;24.00;98.70
58309;DHT22;44117;57.142;24.826;2022-08-25T17:24:11;23.80;99.20
58309;DHT22;44117;57.142;24.826;2022-08-25T17:26:40;23.70;99.70
58309;DHT22;44117;57.142;24.826;2022-08-25T17:29:09;23.50;99.90
58309;DHT22;44117;57.142;24.826;2022-08-25T17:31:37;23.20;99.90
58309;DHT22;44117;57.142;24.826;2022-08-25T17:34:08;23.00;99.90
58309;DHT22;44117;57.142;24.826;2022-08-25T17:36:37;23.00;99.90
58309;DHT22;44117;57.142;24.826;2022-08-25T17:39:07;22.80;99.90
58309;DHT22;44117;57.142;24.826;2022-08-25T17:41:35;22.80;99.90